Time;durP1;ratioP1;P1;durP2;ratioP2;P2;SDS_P1;SDS_P2;PMS_P1;PMS_P2;Temp;Humidity;BMP_temperature;BMP_pressure;BME280_temperature;BME280_humidity;BME280_pressure;Samples;Min_cycle;Max_cycle;Signal;HPM_P1;HPM_P2
2021/03/25 00:00:42;;;;;;;33.80;17.25;;;128.60;1894.40;;;;;;5055112;28;20046;-79
2021/03/25 00:03:12;;;;;;;27.85;17.35;;;128.60;1868.80;;;;;;5054386;28;20044;-80
2021/03/25 00:05:38;;;;;;;31.38;18.33;;;128.60;1868.80;;;;;;5054892;28;20047;-80
2021/03/25 00:08:10;;;;;;;24.23;17.13;;;128.50;1894.40;;;;;;5072939;28;20043;-80
2021/03/25 00:10:37;;;;;;;29.55;19.52;;;128.50;1920.00;;;;;;5055263;28;20028;-80
2021/03/25 00:13:04;;;;;;;34.40;19.42;;;128.50;1894.40;;;;;;5073278;28;20346;-80
2021/03/25 00:15:30;;;;;;;26.20;17.77;;;128.50;1894.40;;;;;;5055304;28;20059;-80
2021/03/25 00:17:57;;;;;;;25.40;17.77;;;128.40;1894.40;;;;;;5072954;28;20094;-80
2021/03/25 00:20:23;;;;;;;35.38;21.23;;;128.40;1894.40;;;;;;5073109;28;20017;-80
2021/03/25 00:22:49;;;;;;;32.80;20.15;;;128.40;1894.40;;;;;;5073047;28;20108;-79
2021/03/25 00:25:19;;;;;;;34.92;21.27;;;128.40;1868.80;;;;;;5055033;28;20453;-79
2021/03/25 00:27:44;;;;;;;37.97;21.73;;;128.30;1894.40;;;;;;5054775;28;20066;-80
2021/03/25 00:30:13;;;;;;;30.85;20.10;;;128.30;1868.80;;;;;;5055129;28;20028;-80
2021/03/25 00:32:39;;;;;;;31.67;20.95;;;128.30;1868.80;;;;;;5054971;28;20054;-80
2021/03/25 00:35:06;;;;;;;32.97;21.25;;;128.20;1868.80;;;;;;5054649;28;20107;-80
2021/03/25 00:37:32;;;;;;;30.63;19.67;;;128.20;1868.80;;;;;;5072566;28;20024;-80
2021/03/25 00:39:58;;;;;;;36.00;20.60;;;128.10;1894.40;;;;;;5073031;28;20126;-80
2021/03/25 00:42:24;;;;;;;37.83;21.85;;;128.10;1894.40;;;;;;5072828;28;20033;-79
2021/03/25 00:44:49;;;;;;;31.40;21.27;;;128.00;1868.80;;;;;;5055164;28;20036;-80
2021/03/25 00:47:15;;;;;;;31.73;21.00;;;128.00;1868.80;;;;;;5054841;28;20024;-80
2021/03/25 00:49:41;;;;;;;36.60;20.75;;;128.00;1868.80;;;;;;5056367;28;20020;-80
2021/03/25 00:52:07;;;;;;;37.95;21.65;;;128.00;1868.80;;;;;;5076920;28;20029;-80
2021/03/25 00:54:33;;;;;;;33.20;20.05;;;103.30;1868.80;;;;;;5076598;28;20025;-80
2021/03/25 00:56:58;;;;;;;38.00;22.55;;;103.30;1868.80;;;;;;5076627;28;20025;-82
2021/03/25 00:59:24;;;;;;;33.53;20.13;;;103.30;1868.80;;;;;;5058285;28;20032;-79
2021/03/25 01:01:50;;;;;;;34.45;21.48;;;103.20;1868.80;;;;;;5058480;28;20353;-80
2021/03/25 01:04:16;;;;;;;33.40;21.25;;;103.10;1843.20;;;;;;5076573;28;20031;-80
2021/03/25 01:06:41;;;;;;;45.10;24.40;;;103.20;1868.80;;;;;;5057328;28;20032;-80
2021/03/25 01:09:21;;;;;;;64.63;33.00;;;103.10;1868.80;;;;;;5074865;28;20025;-79
2021/03/25 01:11:47;;;;;;;58.63;29.90;;;103.10;1868.80;;;;;;5052549;28;20499;-80
2021/03/25 01:14:14;;;;;;;83.53;41.95;;;103.10;1868.80;;;;;;5076539;28;20031;-80
2021/03/25 01:16:43;;;;;;;81.25;39.40;;;103.00;1868.80;;;;;;5058117;28;20049;-80
2021/03/25 01:19:20;;;;;;;77.88;38.25;;;103.00;1868.80;;;;;;5076109;28;20044;-80
2021/03/25 01:21:47;;;;;;;73.47;40.42;;;103.00;1868.80;;;;;;5057630;28;20035;-79
2021/03/25 01:24:13;;;;;;;82.95;44.95;;;103.00;1868.80;;;;;;5058081;28;20068;-80
2021/03/25 01:26:39;;;;;;;82.13;43.47;;;102.90;1894.40;;;;;;5075907;28;20099;-80
2021/03/25 01:29:06;;;;;;;55.30;31.80;;;103.00;1894.40;;;;;;5075897;28;20021;-80
2021/03/25 01:31:32;;;;;;;44.05;27.88;;;103.00;1894.40;;;;;;5057498;28;20121;-80
2021/03/25 01:33:58;;;;;;;44.60;26.45;;;102.90;1920.00;;;;;;5075240;28;20021;-79
2021/03/25 01:36:24;;;;;;;40.35;24.95;;;103.00;1894.40;;;;;;5075542;28;20021;-80
2021/03/25 01:38:50;;;;;;;34.45;22.13;;;103.00;1920.00;;;;;;5057758;28;20038;-80
2021/03/25 01:41:16;;;;;;;37.22;22.85;;;103.00;1945.60;;;;;;5057884;28;20062;-80
2021/03/25 01:43:45;;;;;;;32.92;20.60;;;103.00;1920.00;;;;;;5057813;28;20119;-79
2021/03/25 01:46:40;;;;;;;32.67;20.60;;;103.00;1920.00;;;;;;5075514;28;20103;-79
2021/03/25 01:49:09;;;;;;;32.25;21.60;;;103.00;1920.00;;;;;;5062425;28;20036;-79
2021/03/25 01:51:56;;;;;;;30.83;20.15;;;102.90;1920.00;;;;;;5057506;28;20076;-79
2021/03/25 01:54:40;;;;;;;35.65;22.38;;;102.90;1920.00;;;;;;5057692;28;20488;-79
2021/03/25 01:57:39;;;;;;;35.72;22.00;;;102.90;1945.60;;;;;;5057503;28;20435;-79
2021/03/25 02:00:11;;;;;;;36.75;22.88;;;102.90;1920.00;;;;;;5057261;28;20029;-80
2021/03/25 02:02:40;;;;;;;35.42;22.10;;;102.90;1920.00;;;;;;5057820;28;20385;-79
2021/03/25 02:05:37;;;;;;;34.65;22.23;;;102.90;1920.00;;;;;;5075562;28;20085;-79
2021/03/25 02:08:22;;;;;;;37.00;21.67;;;102.90;1945.60;;;;;;5056479;28;20060;-79
2021/03/25 02:11:10;;;;;;;32.38;22.15;;;102.80;1945.60;;;;;;5057320;28;20782;-81
2021/03/25 02:13:56;;;;;;;39.22;23.65;;;102.80;1945.60;;;;;;5057213;28;20197;-79
2021/03/25 02:16:33;;;;;;;38.70;22.25;;;102.70;1920.00;;;;;;5075216;28;20024;-80
2021/03/25 02:19:07;;;;;;;32.38;21.77;;;102.70;1945.60;;;;;;5056661;28;20182;-81
2021/03/25 02:22:07;;;;;;;35.63;21.73;;;102.70;1945.60;;;;;;5075119;28;20488;-81
2021/03/25 02:24:45;;;;;;;34.28;21.90;;;102.70;1920.00;;;;;;5057375;28;20029;-80
2021/03/25 02:27:19;;;;;;;40.30;22.92;;;102.60;1945.60;;;;;;5074835;28;20090;-80
2021/03/25 02:29:58;;;;;;;37.55;21.98;;;102.60;1945.60;;;;;;5074789;28;20020;-79
2021/03/25 02:32:34;;;;;;;38.15;23.08;;;102.60;1945.60;;;;;;5056768;28;20021;-80
2021/03/25 02:35:10;;;;;;;38.97;22.70;;;102.60;1945.60;;;;;;5074577;28;20028;-79
2021/03/25 02:37:38;;;;;;;41.78;22.02;;;102.60;1945.60;;;;;;5056095;28;20033;-79
2021/03/25 02:40:07;;;;;;;37.20;21.83;;;102.60;1920.00;;;;;;5074695;28;20476;-79
2021/03/25 02:42:40;;;;;;;36.13;20.48;;;102.60;1945.60;;;;;;5074542;28;20037;-79
2021/03/25 02:45:18;;;;;;;33.40;21.77;;;102.50;1945.60;;;;;;5074570;28;20033;-80
2021/03/25 02:47:46;;;;;;;36.95;21.45;;;102.50;1945.60;;;;;;5074689;28;20441;-79
2021/03/25 02:50:21;;;;;;;34.97;20.00;;;102.50;1920.00;;;;;;5056212;28;20242;-80
2021/03/25 02:52:52;;;;;;;41.63;21.60;;;102.50;1920.00;;;;;;5055867;28;20035;-80
2021/03/25 02:55:19;;;;;;;41.70;25.17;;;102.50;1945.60;;;;;;5074165;28;20020;-79
2021/03/25 02:57:53;;;;;;;45.25;25.35;;;102.50;1945.60;;;;;;5073826;28;20036;-80
2021/03/25 03:00:25;;;;;;;48.60;27.65;;;102.50;1945.60;;;;;;5074604;28;20430;-79
2021/03/25 03:02:56;;;;;;;46.17;27.73;;;102.50;1945.60;;;;;;5056555;28;20480;-79
2021/03/25 03:05:25;;;;;;;47.50;27.58;;;102.50;1971.20;;;;;;5074184;28;20029;-79
2021/03/25 03:07:59;;;;;;;45.28;25.30;;;102.50;1945.60;;;;;;5056353;28;20079;-79
2021/03/25 03:10:34;;;;;;;45.17;26.88;;;102.50;1945.60;;;;;;5056438;28;20027;-79
2021/03/25 03:13:03;;;;;;;50.08;29.50;;;102.40;1920.00;;;;;;5073389;28;20032;-79
2021/03/25 03:15:42;;;;;;;53.80;30.17;;;102.40;1945.60;;;;;;5056399;28;20032;-79
2021/03/25 03:18:19;;;;;;;50.10;29.55;;;77.70;1971.20;;;;;;5055923;28;20036;-79
2021/03/25 03:20:44;;;;;;;53.03;30.00;;;77.70;1971.20;;;;;;5073961;28;20020;-79
2021/03/25 03:23:10;;;;;;;47.15;26.83;;;77.60;1945.60;;;;;;5055995;28;20029;-79
2021/03/25 03:25:38;;;;;;;46.13;26.25;;;77.70;1945.60;;;;;;5039043;28;20040;-79
2021/03/25 03:28:14;;;;;;;44.25;27.60;;;77.70;1945.60;;;;;;5055807;28;20035;-79
2021/03/25 03:30:45;;;;;;;49.47;27.45;;;77.60;1971.20;;;;;;5055906;28;20377;-79
2021/03/25 03:33:23;;;;;;;44.55;26.60;;;77.60;2022.40;;;;;;5055507;28;20149;-80
2021/03/25 03:35:57;;;;;;;44.17;27.95;;;77.70;1996.80;;;;;;5055652;28;20534;-80
2021/03/25 03:38:33;;;;;;;54.67;26.90;;;77.70;2022.40;;;;;;5073591;28;20024;-80
2021/03/25 03:41:00;;;;;;;43.17;26.00;;;102.40;1996.80;;;;;;5073630;28;20086;-80
2021/03/25 03:43:28;;;;;;;43.00;25.60;;;102.40;1996.80;;;;;;5073590;28;20064;-80
2021/03/25 03:46:18;;;;;;;38.10;23.60;;;77.70;1971.20;;;;;;5055429;28;20024;-80
2021/03/25 03:48:50;;;;;;;41.60;24.98;;;77.70;1996.80;;;;;;5055570;28;20473;-80
2021/03/25 03:51:30;;;;;;;39.35;23.10;;;77.70;1971.20;;;;;;5073747;28;20516;-80
2021/03/25 03:53:58;;;;;;;42.28;23.77;;;77.70;1971.20;;;;;;5055164;28;20435;-80
2021/03/25 03:56:30;;;;;;;38.20;23.05;;;77.70;1971.20;;;;;;5073063;28;20025;-80
2021/03/25 03:59:01;;;;;;;37.17;23.77;;;77.70;1971.20;;;;;;5072993;28;20032;-80
2021/03/25 04:01:49;;;;;;;42.15;23.80;;;77.60;1971.20;;;;;;5053951;28;20051;-80
2021/03/25 04:04:28;;;;;;;38.00;22.98;;;77.60;1996.80;;;;;;5053942;28;20036;-79
2021/03/25 04:06:57;;;;;;;54.45;25.80;;;77.70;1971.20;;;;;;5053232;28;20488;-80
2021/03/25 04:09:32;;;;;;;48.15;27.00;;;77.60;1945.60;;;;;;5071810;28;20017;-80
2021/03/25 04:12:13;;;;;;;53.63;30.35;;;77.60;1945.60;;;;;;5054163;28;20078;-80
2021/03/25 04:14:49;;;;;;;46.35;28.70;;;77.60;1971.20;;;;;;5054005;28;20048;-80
2021/03/25 04:17:25;;;;;;;53.60;30.27;;;77.60;1971.20;;;;;;5071901;28;20515;-81
2021/03/25 04:19:53;;;;;;;50.00;29.55;;;77.60;1945.60;;;;;;5054834;28;20032;-80
2021/03/25 04:22:23;;;;;;;45.05;27.50;;;77.50;1945.60;;;;;;5054412;28;20036;-80
2021/03/25 04:25:26;;;;;;;52.42;30.98;;;77.50;1945.60;;;;;;5058747;28;20423;-80
2021/03/25 04:28:04;;;;;;;58.53;33.72;;;77.50;1945.60;;;;;;5074134;28;20447;-81
2021/03/25 04:30:35;;;;;;;58.63;35.58;;;77.50;1971.20;;;;;;5077287;28;20541;-81
2021/03/25 04:33:02;;;;;;;;;;;77.60;1971.20;;;;;;5059720;28;20025;-81
2021/03/25 04:35:28;;;;;;;56.65;31.20;;;77.50;1971.20;;;;;;5059227;28;19966;-80
2021/03/25 04:37:57;;;;;;;50.67;32.45;;;77.50;1971.20;;;;;;5058773;28;20552;-80
2021/03/25 04:40:33;;;;;;;51.55;29.98;;;77.40;1971.20;;;;;;5077003;28;20020;-81
2021/03/25 04:42:59;;;;;;;55.65;31.77;;;77.40;1996.80;;;;;;5058767;28;20047;-80
2021/03/25 04:45:45;;;;;;;49.08;30.60;;;77.40;1996.80;;;;;;5058992;28;20025;-80
2021/03/25 04:48:15;;;;;;;49.20;30.98;;;77.40;1971.20;;;;;;5058943;28;20141;-80
2021/03/25 04:50:54;;;;;;;53.65;30.33;;;77.50;1996.80;;;;;;5058984;28;20033;-81
2021/03/25 04:53:25;;;;;;;45.28;28.23;;;77.50;1996.80;;;;;;5076815;28;20054;-81
2021/03/25 04:55:51;;;;;;;;;;;77.50;1996.80;;;;;;5059197;28;20032;-81
2021/03/25 04:58:38;;;;;;;57.63;32.75;;;77.50;1996.80;;;;;;5058787;28;19904;-80
2021/03/25 05:01:07;;;;;;;62.60;33.15;;;77.40;2022.40;;;;;;5058688;28;20028;-81
2021/03/25 05:03:34;;;;;;;63.55;34.10;;;77.50;2022.40;;;;;;5058588;28;20036;-81
2021/03/25 05:06:00;;;;;;;57.47;32.60;;;77.40;2022.40;;;;;;5058098;28;20032;-80
2021/03/25 05:08:34;;;;;;;54.13;32.22;;;77.50;2022.40;;;;;;5076295;28;20118;-80
2021/03/25 05:11:14;;;;;;;54.65;33.50;;;77.50;2048.00;;;;;;5076145;28;20031;-80
2021/03/25 05:13:45;;;;;;;54.95;33.38;;;77.50;2048.00;;;;;;5076355;28;20024;-81
2021/03/25 05:16:53;;;;;;;53.20;33.45;;;77.50;2048.00;;;;;;5058507;28;20097;-80
2021/03/25 05:19:45;;;;;;;59.53;35.53;;;77.50;2073.60;;;;;;5054458;28;20145;-80
2021/03/25 05:22:36;;;;;;;56.35;35.75;;;77.60;2073.60;;;;;;5057877;28;20070;-80
2021/03/25 05:25:34;;;;;;;51.90;34.70;;;77.60;2073.60;;;;;;5057804;28;20527;-78
2021/03/25 05:28:15;;;;;;;70.75;43.85;;;77.60;2099.20;;;;;;5018078;28;20476;-79
2021/03/25 05:30:43;;;;;;;62.55;38.75;;;77.60;2099.20;;;;;;5076004;28;20031;-79
2021/03/25 05:33:13;;;;;;;79.57;44.78;;;77.60;2099.20;;;;;;5055148;28;20119;-80
2021/03/25 05:35:42;;;;;;;119.18;54.47;;;77.60;2099.20;;;;;;5057417;28;20051;-80
2021/03/25 05:38:08;;;;;;;149.70;69.15;;;77.70;2099.20;;;;;;5057937;28;20032;-82
2021/03/25 05:40:52;;;;;;;144.57;73.43;;;77.70;2099.20;;;;;;5061661;28;20021;-95
2021/03/25 05:43:52;;;;;;;151.55;78.18;;;77.70;2099.20;;;;;;5062054;28;20020;-90
2021/03/25 05:46:37;;;;;;;86.43;48.00;;;77.70;2099.20;;;;;;5060649;28;20020;-90
2021/03/25 05:49:42;;;;;;;84.35;44.60;;;102.40;2099.20;;;;;;5078181;28;20023;-90
2021/03/25 05:52:38;;;;;;;82.07;49.15;;;102.50;2099.20;;;;;;5089472;28;20024;-91
2021/03/25 05:55:19;;;;;;;83.10;47.92;;;102.50;2099.20;;;;;;5081754;28;20028;-90
2021/03/25 05:58:09;;;;;;;76.78;44.20;;;102.60;2099.20;;;;;;5079852;28;20476;-86
2021/03/25 06:00:46;;;;;;;68.57;39.83;;;102.60;2099.20;;;;;;5073202;28;20040;-89
2021/03/25 06:03:15;;;;;;;76.47;44.67;;;102.60;2124.80;;;;;;5048496;28;20039;-87
2021/03/25 06:05:49;;;;;;;83.05;47.70;;;102.70;2124.80;;;;;;5054132;28;20035;-91
2021/03/25 06:08:39;;;;;;;84.47;48.38;;;102.70;2124.80;;;;;;5048141;28;20117;-94
2021/03/25 06:11:14;;;;;;;68.82;40.88;;;102.80;2124.80;;;;;;5059552;28;20089;-92
2021/03/25 06:13:55;;;;;;;81.95;45.30;;;102.90;2150.40;;;;;;5060209;28;20067;-92
2021/03/25 06:16:43;;;;;;;91.07;50.50;;;103.00;2124.80;;;;;;5062289;28;20020;-91
2021/03/25 06:25:49;;;;;;;84.28;46.03;;;103.10;2124.80;;;;;;5000010;28;20025;-94
2021/03/25 06:28:33;;;;;;;88.15;46.33;;;103.10;2099.20;;;;;;5082119;28;20064;-91
2021/03/25 06:31:34;;;;;;;73.07;39.15;;;103.20;2124.80;;;;;;5079618;28;20489;-92
2021/03/25 06:34:32;;;;;;;;;;;103.20;2124.80;;;;;;5044229;28;20037;-88
2021/03/25 06:37:09;;;;;;;67.28;39.40;;;103.20;2099.20;;;;;;5027569;28;19912;-90
2021/03/25 06:39:44;;;;;;;70.13;47.10;;;103.30;2099.20;;;;;;5059289;28;20043;-91
2021/03/25 06:42:32;;;;;;;70.45;45.25;;;128.00;2124.80;;;;;;5058872;28;20040;-90
2021/03/25 06:45:12;;;;;;;386.70;232.48;;;128.10;2099.20;;;;;;5059149;28;20040;-91
2021/03/25 06:47:50;;;;;;;;;;;128.20;2124.80;;;;;;5058486;28;20785;-89
2021/03/25 06:50:26;;;;;;;87.43;53.00;;;128.20;2099.20;;;;;;5064146;28;19913;-93
2021/03/25 06:53:04;;;;;;;80.25;49.05;;;128.10;2124.80;;;;;;5068133;28;20028;-93
2021/03/25 06:55:29;;;;;;;94.68;58.92;;;128.20;2124.80;;;;;;5058621;28;20484;-92
2021/03/25 06:58:10;;;;;;;76.20;45.58;;;128.40;2099.20;;;;;;5057866;28;20032;-91
2021/03/25 07:00:39;;;;;;;;;;;128.40;2073.60;;;;;;5057388;28;20773;-89
2021/03/25 07:03:12;;;;;;;98.78;62.92;;;128.50;2099.20;;;;;;5058142;28;19904;-91
2021/03/25 07:05:39;;;;;;;73.88;46.70;;;128.60;2099.20;;;;;;5058900;28;20032;-90
2021/03/25 07:08:16;;;;;;;68.03;42.05;;;128.70;2099.20;;;;;;5057777;28;20048;-90
2021/03/25 07:10:43;;;;;;;72.57;45.17;;;128.70;2099.20;;;;;;5061625;28;20017;-90
2021/03/25 07:13:17;;;;;;;88.97;48.63;;;128.80;2073.60;;;;;;5070063;28;20050;-90
2021/03/25 07:15:43;;;;;;;82.72;49.03;;;128.90;2073.60;;;;;;5063232;28;20050;-92
2021/03/25 07:18:24;;;;;;;85.28;49.17;;;128.90;2048.00;;;;;;5059665;28;20046;-91
2021/03/25 07:21:09;;;;;;;;;;;153.60;2048.00;;;;;;5057858;28;20041;-90
2021/03/25 07:23:45;;;;;;;70.57;44.17;;;153.70;2022.40;;;;;;5058353;28;19908;-91
2021/03/25 07:26:33;;;;;;;78.18;47.20;;;153.70;2048.00;;;;;;5038051;28;20112;-91
2021/03/25 07:29:10;;;;;;;68.43;43.17;;;153.70;2048.00;;;;;;5037269;28;20120;-90
2021/03/25 07:31:40;;;;;;;69.75;43.15;;;153.90;2022.40;;;;;;5042743;28;20025;-90
2021/03/25 07:34:07;;;;;;;72.22;43.90;;;153.90;2022.40;;;;;;5055919;28;20503;-90
2021/03/25 07:36:47;;;;;;;67.85;43.33;;;154.00;2022.40;;;;;;5049542;28;20036;-90
2021/03/25 07:39:13;;;;;;;70.20;42.27;;;154.10;2022.40;;;;;;5067173;28;20028;-90
2021/03/25 07:41:45;;;;;;;68.18;42.22;;;154.10;2022.40;;;;;;5061499;28;20035;-90
2021/03/25 07:44:34;;;;;;;63.20;39.53;;;154.20;2022.40;;;;;;5078182;28;20133;-89
2021/03/25 07:47:24;;;;;;;71.95;39.92;;;154.30;1971.20;;;;;;5058540;28;20029;-89
2021/03/25 07:49:50;;;;;;;72.68;40.28;;;154.30;1971.20;;;;;;5058045;28;20020;-90
2021/03/25 07:52:30;;;;;;;64.65;38.95;;;154.50;1971.20;;;;;;5057692;28;20898;-89
2021/03/25 07:55:21;;;;;;;68.80;40.08;;;179.20;1971.20;;;;;;5036601;28;20053;-90
2021/03/25 07:57:52;;;;;;;59.90;35.60;;;179.30;1971.20;;;;;;5036009;28;20033;-89
2021/03/25 08:00:26;;;;;;;66.65;36.47;;;179.40;1945.60;;;;;;5036495;28;20116;-89
2021/03/25 08:03:11;;;;;;;66.10;36.45;;;179.40;1945.60;;;;;;5036060;28;20059;-89
2021/03/25 08:05:38;;;;;;;62.55;36.50;;;179.50;1920.00;;;;;;5052651;28;20075;-89
2021/03/25 08:08:16;;;;;;;65.55;39.88;;;179.60;1920.00;;;;;;5036704;28;20040;-87
2021/03/25 08:10:45;;;;;;;65.43;37.00;;;179.70;1945.60;;;;;;5054121;28;20045;-91
2021/03/25 08:13:28;;;;;;;62.83;37.10;;;179.80;1894.40;;;;;;5036449;28;20021;-87
2021/03/25 08:16:07;;;;;;;65.72;39.05;;;179.80;1868.80;;;;;;5037428;28;20025;-92
2021/03/25 08:18:55;;;;;;;58.28;36.33;;;179.90;1894.40;;;;;;5050646;28;20135;-90
2021/03/25 08:21:52;;;;;;;94.63;41.33;;;180.00;1894.40;;;;;;5069869;28;20382;-76
2021/03/25 08:24:30;;;;;;;85.65;39.70;;;180.00;1868.80;;;;;;5051416;28;20029;-76
2021/03/25 08:27:23;;;;;;;61.28;35.70;;;180.00;1868.80;;;;;;5053057;28;20112;-76
2021/03/25 08:30:10;;;;;;;53.42;33.78;;;180.10;1894.40;;;;;;5035110;28;20033;-75
2021/03/25 08:33:10;;;;;;;62.28;35.45;;;204.80;1920.00;;;;;;5068478;28;20074;-75
2021/03/25 08:35:37;;;;;;;57.22;34.60;;;204.90;1843.20;;;;;;5034377;28;20033;-76
2021/03/25 08:38:35;;;;;;;61.88;34.55;;;204.90;1843.20;;;;;;5068431;28;20025;-75
2021/03/25 08:41:06;;;;;;;61.22;30.65;;;204.90;1817.60;;;;;;5053265;28;20100;-75
2021/03/25 08:44:01;;;;;;;53.75;28.52;;;205.00;1792.00;;;;;;5035042;28;20563;-75
2021/03/25 08:46:33;;;;;;;45.80;25.63;;;205.10;1792.00;;;;;;5052929;28;20025;-75
2021/03/25 08:49:10;;;;;;;39.60;25.40;;;205.10;1766.40;;;;;;5068208;28;20021;-75
2021/03/25 08:51:40;;;;;;;40.78;24.00;;;205.30;1817.60;;;;;;5035191;28;20021;-75
2021/03/25 08:54:15;;;;;;;37.83;21.65;;;205.40;1740.80;;;;;;5052808;28;20040;-75
2021/03/25 08:56:45;;;;;;;31.05;17.75;;;205.50;1792.00;;;;;;5052816;28;20028;-77
2021/03/25 08:59:13;;;;;;;34.40;19.60;;;205.60;1715.20;;;;;;5052729;28;20100;-75
2021/03/25 09:01:50;;;;;;;36.78;20.85;;;205.70;1740.80;;;;;;5034929;28;20029;-75
2021/03/25 09:04:17;;;;;;;32.47;20.58;;;230.40;1689.60;;;;;;5052776;28;20021;-75
2021/03/25 09:06:46;;;;;;;38.13;20.20;;;230.40;1664.00;;;;;;5067662;28;20112;-76
2021/03/25 09:09:41;;;;;;;30.63;17.48;;;230.50;1715.20;;;;;;5068178;28;20362;-75
2021/03/25 09:12:15;;;;;;;32.72;19.58;;;230.70;1612.80;;;;;;5036122;28;20029;-75
2021/03/25 09:14:42;;;;;;;29.38;18.35;;;230.80;1689.60;;;;;;5056385;28;20484;-75
2021/03/25 09:17:12;;;;;;;29.75;18.52;;;230.80;1612.80;;;;;;5056109;28;20029;-76
2021/03/25 09:19:42;;;;;;;24.70;15.48;;;230.90;1536.00;;;;;;5071728;28;20033;-75
2021/03/25 09:22:08;;;;;;;30.23;14.73;;;231.00;1587.20;;;;;;5056276;28;20036;-75
2021/03/25 09:24:34;;;;;;;21.13;14.07;;;231.00;1484.80;;;;;;5071675;28;20029;-75
2021/03/25 09:27:06;;;;;;;20.33;13.55;;;231.10;1510.40;;;;;;5056077;28;20055;-75
2021/03/25 09:30:01;;;;;;;19.65;13.05;;;231.30;1408.00;;;;;;5071528;28;20071;-75
2021/03/25 09:32:35;;;;;;;18.95;12.55;;;231.30;1356.80;;;;;;5037989;28;20025;-75
2021/03/25 09:35:03;;;;;;;34.72;12.52;;;231.30;1382.40;;;;;;5056104;28;20020;-75
2021/03/25 09:37:30;;;;;;;25.23;13.68;;;256.00;1484.80;;;;;;5056096;28;20068;-75
2021/03/25 09:40:35;;;;;;;19.75;13.18;;;256.10;1408.00;;;;;;5055822;28;20059;-75
2021/03/25 09:43:22;;;;;;;19.42;12.88;;;256.10;1382.40;;;;;;5055920;28;20023;-75
2021/03/25 09:45:48;;;;;;;21.85;12.65;;;256.10;1331.20;;;;;;5055793;28;20104;-75
2021/03/25 09:48:34;;;;;;;16.80;11.70;;;256.30;1356.80;;;;;;5055600;28;20569;-76
2021/03/25 09:51:18;;;;;;;18.67;10.85;;;256.40;1203.20;;;;;;5055344;28;20056;-75
2021/03/25 09:53:46;;;;;;;17.13;12.00;;;256.40;1177.60;;;;;;5070667;28;20036;-75
2021/03/25 09:56:29;;;;;;;17.42;11.65;;;256.40;1126.40;;;;;;5055502;28;20029;-75
2021/03/25 09:58:57;;;;;;;22.10;13.90;;;256.60;1280.00;;;;;;5069429;28;20130;-75
2021/03/25 10:01:43;;;;;;;20.90;13.27;;;256.60;1254.40;;;;;;5053709;28;20028;-75
2021/03/25 10:04:37;;;;;;;21.55;11.93;;;256.70;1305.60;;;;;;5053854;28;20028;-74
2021/03/25 10:07:13;;;;;;;11.73;9.52;;;256.90;1305.60;;;;;;5036825;28;20028;-76
2021/03/25 10:09:47;;;;;;;19.95;10.70;;;256.90;1203.20;;;;;;5053753;28;20520;-75
2021/03/25 10:12:33;;;;;;;58.13;12.52;;;256.90;1203.20;;;;;;5070247;28;20021;-76
2021/03/25 10:14:59;;;;;;;24.92;11.00;;;281.60;1203.20;;;;;;5070445;28;20021;-75
2021/03/25 10:17:46;;;;;;;15.40;8.68;;;281.60;1203.20;;;;;;5070075;28;20125;-75
2021/03/25 10:20:33;;;;;;;21.20;8.15;;;281.70;1152.00;;;;;;5037213;28;20390;-76
2021/03/25 10:22:59;;;;;;;15.18;8.43;;;281.90;1177.60;;;;;;5054887;28;20354;-76
2021/03/25 10:25:28;;;;;;;19.23;9.02;;;281.90;1126.40;;;;;;5037136;28;20035;-76
2021/03/25 10:27:58;;;;;;;16.83;9.77;;;281.90;1100.80;;;;;;5070314;28;20031;-76
2021/03/25 10:30:32;;;;;;;18.15;9.20;;;282.00;1126.40;;;;;;5036922;28;20033;-77
2021/03/25 10:33:02;;;;;;;12.70;7.80;;;282.10;1049.60;;;;;;5069545;28;20070;-76
2021/03/25 10:35:33;;;;;;;15.40;8.80;;;282.10;1100.80;;;;;;5054719;28;20048;-76
2021/03/25 10:38:03;;;;;;;;;;;282.20;1049.60;;;;;;5055144;28;20487;-76
2021/03/25 10:40:32;;;;;;;11.52;7.45;;;282.20;1049.60;;;;;;5054824;28;19905;-76
2021/03/25 10:43:07;;;;;;;14.73;6.75;;;282.30;1049.60;;;;;;5054307;28;20032;-77
2021/03/25 10:45:53;;;;;;;14.15;6.88;;;282.30;1075.20;;;;;;5036818;28;20492;-77
2021/03/25 10:48:19;;;;;;;17.25;9.00;;;282.40;1075.20;;;;;;5036384;28;20477;-77
2021/03/25 10:51:13;;;;;;;13.70;6.53;;;282.50;1075.20;;;;;;5069793;28;20033;-77
2021/03/25 10:53:50;;;;;;;15.85;7.32;;;307.20;1075.20;;;;;;5053213;28;20029;-77
2021/03/25 10:56:20;;;;;;;18.02;8.73;;;307.30;1126.40;;;;;;5035732;28;20120;-77
2021/03/25 10:59:24;;;;;;;44.05;21.80;;;307.40;1075.20;;;;;;5036575;28;20025;-77
2021/03/25 11:01:55;;;;;;;21.55;11.45;;;307.50;1049.60;;;;;;5052555;28;20054;-77
2021/03/25 11:04:26;;;;;;;12.68;7.75;;;307.60;1049.60;;;;;;5069271;28;20033;-77
2021/03/25 11:06:53;;;;;;;13.93;7.68;;;307.60;998.40;;;;;;5053994;28;20401;-80
2021/03/25 11:09:28;;;;;;;19.38;6.18;;;307.70;1049.60;;;;;;5069687;28;20024;-77
2021/03/25 11:11:59;;;;;;;9.32;6.05;;;307.80;998.40;;;;;;5069711;28;20051;-77
2021/03/25 11:14:35;;;;;;;9.07;6.13;;;307.80;1049.60;;;;;;5069570;28;20156;-77
2021/03/25 11:17:29;;;;;;;9.88;6.03;;;307.90;1075.20;;;;;;5054097;28;20525;-78
2021/03/25 11:19:59;;;;;;;12.75;7.40;;;307.90;1049.60;;;;;;5068737;28;20100;-77
2021/03/25 11:22:33;;;;;;;11.73;7.00;;;308.00;1049.60;;;;;;5054311;28;20028;-77
2021/03/25 11:25:04;;;;;;;12.13;6.65;;;307.90;1024.00;;;;;;5035576;28;20029;-77
2021/03/25 11:27:31;;;;;;;10.65;5.78;;;308.00;1024.00;;;;;;5053724;28;20489;-77
2021/03/25 11:30:20;;;;;;;6.10;4.30;;;308.00;998.40;;;;;;5036004;28;20155;-77
2021/03/25 11:32:46;;;;;;;9.02;4.65;;;308.10;998.40;;;;;;5053210;28;20496;-77
2021/03/25 11:35:39;;;;;;;10.23;6.40;;;332.80;1075.20;;;;;;5053951;28;20025;-77
2021/03/25 11:38:27;;;;;;;10.57;6.35;;;332.90;1049.60;;;;;;5053785;28;20028;-77
2021/03/25 11:40:57;;;;;;;10.25;6.70;;;333.00;1075.20;;;;;;5053617;28;20358;-77
2021/03/25 11:43:38;;;;;;;11.35;5.80;;;333.00;1024.00;;;;;;5052272;28;20031;-77
2021/03/25 11:46:04;;;;;;;13.23;7.70;;;333.10;1024.00;;;;;;5053584;28;20029;-77
2021/03/25 11:48:37;;;;;;;13.63;6.95;;;333.10;1024.00;;;;;;5053559;28;20112;-77
2021/03/25 11:51:15;;;;;;;7.70;5.60;;;333.20;998.40;;;;;;5035632;28;20112;-77
2021/03/25 11:53:46;;;;;;;6.50;5.50;;;333.20;1024.00;;;;;;5068689;28;20021;-77
2021/03/25 11:56:29;;;;;;;;;;;333.30;998.40;;;;;;5036085;28;20025;-77
2021/03/25 11:59:00;;;;;;;8.48;5.03;;;333.40;998.40;;;;;;5053330;28;20272;-77
2021/03/25 12:01:29;;;;;;;6.05;4.75;;;333.30;1024.00;;;;;;5035357;28;20033;-77
2021/03/25 12:04:06;;;;;;;10.98;7.10;;;333.40;947.20;;;;;;5053407;28;20029;-77
2021/03/25 12:06:37;;;;;;;13.63;6.50;;;333.40;998.40;;;;;;5053331;28;20036;-77
2021/03/25 12:09:13;;;;;;;7.97;6.30;;;333.50;972.80;;;;;;5053158;28;20021;-77
2021/03/25 12:11:42;;;;;;;9.02;6.22;;;333.50;1024.00;;;;;;5068757;28;20442;-77
2021/03/25 12:14:08;;;;;;;10.85;5.32;;;333.60;998.40;;;;;;5035408;28;20495;-77
2021/03/25 12:16:35;;;;;;;9.13;5.10;;;333.60;947.20;;;;;;5053483;28;20096;-77
2021/03/25 12:19:01;;;;;;;6.05;4.65;;;333.60;896.00;;;;;;5035147;28;20404;-77
2021/03/25 12:21:29;;;;;;;20.10;9.10;;;333.70;998.40;;;;;;5053165;28;20064;-77
2021/03/25 12:23:57;;;;;;;17.17;10.02;;;333.70;947.20;;;;;;5053392;28;20226;-77
2021/03/25 12:26:23;;;;;;;11.73;7.85;;;358.40;921.60;;;;;;5068495;28;20104;-77
2021/03/25 12:28:50;;;;;;;7.45;4.57;;;358.40;921.60;;;;;;5034987;28;20384;-78
2021/03/25 12:31:21;;;;;;;12.57;6.43;;;358.50;947.20;;;;;;5035395;28;20025;-77
2021/03/25 12:33:47;;;;;;;10.38;6.00;;;358.50;972.80;;;;;;5053866;28;20056;-77
2021/03/25 12:36:15;;;;;;;12.10;5.50;;;358.60;998.40;;;;;;5053890;28;20075;-77
2021/03/25 12:38:41;;;;;;;13.57;7.50;;;358.60;972.80;;;;;;5035939;28;20128;-77
2021/03/25 12:41:07;;;;;;;13.43;7.95;;;358.70;972.80;;;;;;5052899;28;20104;-77
2021/03/25 12:43:34;;;;;;;12.98;7.18;;;358.70;947.20;;;;;;5052871;28;20033;-77
2021/03/25 12:46:06;;;;;;;16.00;7.40;;;358.70;921.60;;;;;;5038732;28;20087;-77
2021/03/25 12:48:33;;;;;;;13.95;7.65;;;358.80;972.80;;;;;;5071423;28;20509;-77
2021/03/25 12:51:00;;;;;;;12.68;6.95;;;358.90;947.20;;;;;;5056835;28;20492;-77